sensor_id;sensor_type;location;lat;lon;timestamp;temperature;humidity
18305;DHT22;9278;52.156;21.048;2022-08-19T00:01:46;21.70;99.90
18305;DHT22;9278;52.156;21.048;2022-08-19T00:04:23;21.70;99.90
18305;DHT22;9278;52.156;21.048;2022-08-19T00:06:52;21.50;99.90
18305;DHT22;9278;52.156;21.048;2022-08-19T00:09:22;21.40;99.90
18305;DHT22;9278;52.156;21.048;2022-08-19T00:11:50;21.30;99.90
18305;DHT22;9278;52.156;21.048;2022-08-19T00:14:20;21.20;99.90
18305;DHT22;9278;52.156;21.048;2022-08-19T00:16:49;21.10;99.90
18305;DHT22;9278;52.156;21.048;2022-08-19T00:19:18;21.00;99.90
18305;DHT22;9278;52.156;21.048;2022-08-19T00:21:46;21.00;99.90
18305;DHT22;9278;52.156;21.048;2022-08-19T00:24:14;21.10;99.90
18305;DHT22;9278;52.156;21.048;2022-08-19T00:26:44;21.00;99.90
18305;DHT22;9278;52.156;21.048;2022-08-19T00:29:15;21.00;99.90
18305;DHT22;9278;52.156;21.048;2022-08-19T00:31:45;21.00;99.90
18305;DHT22;9278;52.156;21.048;2022-08-19T00:34:16;21.00;99.90
18305;DHT22;9278;52.156;21.048;2022-08-19T00:36:45;20.90;99.90
18305;DHT22;9278;52.156;21.048;2022-08-19T00:39:14;20.90;99.90
18305;DHT22;9278;52.156;21.048;2022-08-19T00:41:44;20.90;99.90
18305;DHT22;9278;52.156;21.048;2022-08-19T00:44:15;20.80;99.90
18305;DHT22;9278;52.156;21.048;2022-08-19T00:46:48;20.90;99.90
18305;DHT22;9278;52.156;21.048;2022-08-19T00:49:26;21.00;99.90
18305;DHT22;9278;52.156;21.048;2022-08-19T00:52:15;21.20;99.90
18305;DHT22;9278;52.156;21.048;2022-08-19T00:54:47;21.40;99.90
18305;DHT22;9278;52.156;21.048;2022-08-19T00:57:22;21.60;99.90
18305;DHT22;9278;52.156;21.048;2022-08-19T00:59:54;21.70;99.90
18305;DHT22;9278;52.156;21.048;2022-08-19T01:02:31;21.60;99.90
18305;DHT22;9278;52.156;21.048;2022-08-19T01:05:01;21.80;99.90
18305;DHT22;9278;52.156;21.048;2022-08-19T01:07:29;21.70;99.90
18305;DHT22;9278;52.156;21.048;2022-08-19T01:10:06;21.50;99.90
18305;DHT22;9278;52.156;21.048;2022-08-19T01:12:35;21.40;99.90
18305;DHT22;9278;52.156;21.048;2022-08-19T01:15:05;21.20;99.90
18305;DHT22;9278;52.156;21.048;2022-08-19T01:17:36;21.10;99.90
18305;DHT22;9278;52.156;21.048;2022-08-19T01:20:08;21.00;99.90
18305;DHT22;9278;52.156;21.048;2022-08-19T01:22:43;21.00;99.90
18305;DHT22;9278;52.156;21.048;2022-08-19T01:25:12;21.00;99.90
18305;DHT22;9278;52.156;21.048;2022-08-19T01:27:43;21.00;99.90
18305;DHT22;9278;52.156;21.048;2022-08-19T01:30:13;20.90;99.90
18305;DHT22;9278;52.156;21.048;2022-08-19T01:32:42;20.80;99.90
18305;DHT22;9278;52.156;21.048;2022-08-19T01:35:11;20.70;99.90
18305;DHT22;9278;52.156;21.048;2022-08-19T01:37:45;20.70;99.90
18305;DHT22;9278;52.156;21.048;2022-08-19T01:40:14;20.50;99.90
18305;DHT22;9278;52.156;21.048;2022-08-19T01:42:42;20.50;99.90
18305;DHT22;9278;52.156;21.048;2022-08-19T01:45:11;20.40;99.90
18305;DHT22;9278;52.156;21.048;2022-08-19T01:47:39;20.40;99.90
18305;DHT22;9278;52.156;21.048;2022-08-19T01:50:10;20.30;99.90
18305;DHT22;9278;52.156;21.048;2022-08-19T01:52:39;20.40;99.90
18305;DHT22;9278;52.156;21.048;2022-08-19T01:55:12;20.30;99.90
18305;DHT22;9278;52.156;21.048;2022-08-19T01:57:42;20.20;99.90
18305;DHT22;9278;52.156;21.048;2022-08-19T02:00:14;20.20;99.90
18305;DHT22;9278;52.156;21.048;2022-08-19T02:02:43;20.30;99.90
18305;DHT22;9278;52.156;21.048;2022-08-19T02:05:12;20.30;99.90
18305;DHT22;9278;52.156;21.048;2022-08-19T02:07:40;20.30;99.90
18305;DHT22;9278;52.156;21.048;2022-08-19T02:10:14;20.30;99.90
18305;DHT22;9278;52.156;21.048;2022-08-19T02:12:42;20.40;99.90
18305;DHT22;9278;52.156;21.048;2022-08-19T02:15:11;20.40;99.90
18305;DHT22;9278;52.156;21.048;2022-08-19T02:17:40;20.30;99.90
18305;DHT22;9278;52.156;21.048;2022-08-19T02:20:09;20.40;99.90
18305;DHT22;9278;52.156;21.048;2022-08-19T02:22:40;20.30;99.90
18305;DHT22;9278;52.156;21.048;2022-08-19T02:25:11;20.40;99.90
18305;DHT22;9278;52.156;21.048;2022-08-19T02:27:40;20.40;99.90
18305;DHT22;9278;52.156;21.048;2022-08-19T02:30:11;20.40;99.90
18305;DHT22;9278;52.156;21.048;2022-08-19T02:32:40;20.40;99.90
18305;DHT22;9278;52.156;21.048;2022-08-19T02:35:11;20.40;99.90
18305;DHT22;9278;52.156;21.048;2022-08-19T02:37:39;20.30;99.90
18305;DHT22;9278;52.156;21.048;2022-08-19T02:40:27;20.30;99.90
18305;DHT22;9278;52.156;21.048;2022-08-19T02:42:55;20.20;99.90
18305;DHT22;9278;52.156;21.048;2022-08-19T02:45:24;20.30;99.90
18305;DHT22;9278;52.156;21.048;2022-08-19T02:47:52;20.30;99.90
18305;DHT22;9278;52.156;21.048;2022-08-19T02:50:20;20.30;99.90
18305;DHT22;9278;52.156;21.048;2022-08-19T02:52:48;20.40;99.90
18305;DHT22;9278;52.156;21.048;2022-08-19T02:55:16;20.40;99.90
18305;DHT22;9278;52.156;21.048;2022-08-19T02:57:46;20.30;99.90
18305;DHT22;9278;52.156;21.048;2022-08-19T03:00:15;20.40;99.90
18305;DHT22;9278;52.156;21.048;2022-08-19T03:02:44;20.30;99.90
18305;DHT22;9278;52.156;21.048;2022-08-19T03:05:13;20.30;99.90
18305;DHT22;9278;52.156;21.048;2022-08-19T03:07:41;20.20;99.90
18305;DHT22;9278;52.156;21.048;2022-08-19T03:10:10;20.40;99.90
18305;DHT22;9278;52.156;21.048;2022-08-19T03:12:38;20.40;99.90
18305;DHT22;9278;52.156;21.048;2022-08-19T03:15:08;20.40;99.90
18305;DHT22;9278;52.156;21.048;2022-08-19T03:17:37;20.20;99.90
18305;DHT22;9278;52.156;21.048;2022-08-19T03:20:06;20.20;99.90
18305;DHT22;9278;52.156;21.048;2022-08-19T03:22:34;20.00;99.90
18305;DHT22;9278;52.156;21.048;2022-08-19T03:25:03;20.00;99.90
18305;DHT22;9278;52.156;21.048;2022-08-19T03:27:31;20.00;99.90
18305;DHT22;9278;52.156;21.048;2022-08-19T03:30:01;20.10;99.90
18305;DHT22;9278;52.156;21.048;2022-08-19T03:32:30;20.10;99.90
18305;DHT22;9278;52.156;21.048;2022-08-19T03:34:59;20.10;99.90
18305;DHT22;9278;52.156;21.048;2022-08-19T03:37:27;20.20;99.90
18305;DHT22;9278;52.156;21.048;2022-08-19T03:39:55;20.30;99.90
18305;DHT22;9278;52.156;21.048;2022-08-19T03:42:23;20.20;99.90
18305;DHT22;9278;52.156;21.048;2022-08-19T03:45:13;20.30;99.90
18305;DHT22;9278;52.156;21.048;2022-08-19T03:47:43;20.20;99.90
18305;DHT22;9278;52.156;21.048;2022-08-19T03:50:12;20.20;99.90
18305;DHT22;9278;52.156;21.048;2022-08-19T03:52:40;20.30;99.90
18305;DHT22;9278;52.156;21.048;2022-08-19T03:55:14;20.50;99.90
18305;DHT22;9278;52.156;21.048;2022-08-19T03:57:42;20.50;99.90
18305;DHT22;9278;52.156;21.048;2022-08-19T04:00:12;20.60;99.90
18305;DHT22;9278;52.156;21.048;2022-08-19T04:02:42;20.50;99.90
18305;DHT22;9278;52.156;21.048;2022-08-19T04:05:26;20.70;99.90
18305;DHT22;9278;52.156;21.048;2022-08-19T04:07:55;20.70;99.90
18305;DHT22;9278;52.156;21.048;2022-08-19T04:10:26;20.80;99.90
18305;DHT22;9278;52.156;21.048;2022-08-19T04:12:54;20.90;99.90
18305;DHT22;9278;52.156;21.048;2022-08-19T04:15:23;20.90;99.90
18305;DHT22;9278;52.156;21.048;2022-08-19T04:17:52;20.90;99.90
18305;DHT22;9278;52.156;21.048;2022-08-19T04:20:21;21.00;99.90
18305;DHT22;9278;52.156;21.048;2022-08-19T04:22:49;21.10;99.90
18305;DHT22;9278;52.156;21.048;2022-08-19T04:25:17;21.30;99.90
18305;DHT22;9278;52.156;21.048;2022-08-19T04:27:45;21.30;99.90
18305;DHT22;9278;52.156;21.048;2022-08-19T04:30:15;21.50;99.90
18305;DHT22;9278;52.156;21.048;2022-08-19T04:32:44;21.60;99.90
18305;DHT22;9278;52.156;21.048;2022-08-19T04:35:14;21.90;99.90
18305;DHT22;9278;52.156;21.048;2022-08-19T04:37:46;22.20;99.90
18305;DHT22;9278;52.156;21.048;2022-08-19T04:40:15;22.30;99.90
18305;DHT22;9278;52.156;21.048;2022-08-19T04:43:00;22.60;99.90
18305;DHT22;9278;52.156;21.048;2022-08-19T04:45:28;22.80;99.90
18305;DHT22;9278;52.156;21.048;2022-08-19T04:48:10;22.80;99.90
18305;DHT22;9278;52.156;21.048;2022-08-19T04:50:56;22.90;99.90
18305;DHT22;9278;52.156;21.048;2022-08-19T04:53:25;22.90;99.90
18305;DHT22;9278;52.156;21.048;2022-08-19T04:56:06;23.00;99.90
18305;DHT22;9278;52.156;21.048;2022-08-19T04:58:35;23.10;99.90
18305;DHT22;9278;52.156;21.048;2022-08-19T05:01:04;23.20;99.90
18305;DHT22;9278;52.156;21.048;2022-08-19T05:03:33;23.10;99.90
18305;DHT22;9278;52.156;21.048;2022-08-19T05:06:06;23.20;99.90
18305;DHT22;9278;52.156;21.048;2022-08-19T05:08:36;23.10;99.90
18305;DHT22;9278;52.156;21.048;2022-08-19T05:11:08;23.10;99.90
18305;DHT22;9278;52.156;21.048;2022-08-19T05:13:40;23.10;99.90
18305;DHT22;9278;52.156;21.048;2022-08-19T05:16:10;23.10;99.90
18305;DHT22;9278;52.156;21.048;2022-08-19T05:18:40;23.20;99.90
18305;DHT22;9278;52.156;21.048;2022-08-19T05:21:28;23.10;99.90
18305;DHT22;9278;52.156;21.048;2022-08-19T05:24:14;23.10;99.90
18305;DHT22;9278;52.156;21.048;2022-08-19T05:26:46;23.00;99.90
18305;DHT22;9278;52.156;21.048;2022-08-19T05:29:17;22.90;99.90
18305;DHT22;9278;52.156;21.048;2022-08-19T05:31:48;22.90;99.90
18305;DHT22;9278;52.156;21.048;2022-08-19T05:34:17;22.90;99.90
18305;DHT22;9278;52.156;21.048;2022-08-19T05:36:49;22.80;99.90
18305;DHT22;9278;52.156;21.048;2022-08-19T05:39:20;22.80;99.90
18305;DHT22;9278;52.156;21.048;2022-08-19T05:41:51;22.90;99.90
18305;DHT22;9278;52.156;21.048;2022-08-19T05:44:20;23.00;99.90
18305;DHT22;9278;52.156;21.048;2022-08-19T05:46:49;23.20;99.90
18305;DHT22;9278;52.156;21.048;2022-08-19T05:49:21;23.40;99.90
18305;DHT22;9278;52.156;21.048;2022-08-19T05:51:51;23.50;99.90
18305;DHT22;9278;52.156;21.048;2022-08-19T05:54:19;23.50;99.90
18305;DHT22;9278;52.156;21.048;2022-08-19T05:56:47;23.50;99.90
18305;DHT22;9278;52.156;21.048;2022-08-19T05:59:16;23.40;99.90
18305;DHT22;9278;52.156;21.048;2022-08-19T06:01:46;23.30;99.90
18305;DHT22;9278;52.156;21.048;2022-08-19T06:04:18;23.30;99.90
18305;DHT22;9278;52.156;21.048;2022-08-19T06:06:52;23.30;99.90
18305;DHT22;9278;52.156;21.048;2022-08-19T06:09:21;23.40;99.90
18305;DHT22;9278;52.156;21.048;2022-08-19T06:11:51;23.40;99.90
18305;DHT22;9278;52.156;21.048;2022-08-19T06:14:24;23.40;99.90
18305;DHT22;9278;52.156;21.048;2022-08-19T06:16:54;23.40;99.90
18305;DHT22;9278;52.156;21.048;2022-08-19T06:19:23;23.40;99.90
18305;DHT22;9278;52.156;21.048;2022-08-19T06:21:53;23.40;99.90
18305;DHT22;9278;52.156;21.048;2022-08-19T06:24:24;23.50;99.90
18305;DHT22;9278;52.156;21.048;2022-08-19T06:26:54;23.50;99.90
18305;DHT22;9278;52.156;21.048;2022-08-19T06:29:28;23.50;99.90
18305;DHT22;9278;52.156;21.048;2022-08-19T06:31:59;23.50;99.90
18305;DHT22;9278;52.156;21.048;2022-08-19T06:34:29;23.50;99.90
18305;DHT22;9278;52.156;21.048;2022-08-19T06:37:00;23.60;99.90
18305;DHT22;9278;52.156;21.048;2022-08-19T06:39:34;23.60;99.90
18305;DHT22;9278;52.156;21.048;2022-08-19T06:42:04;23.80;99.90
18305;DHT22;9278;52.156;21.048;2022-08-19T06:44:37;23.90;99.90
18305;DHT22;9278;52.156;21.048;2022-08-19T06:47:11;24.00;99.90
18305;DHT22;9278;52.156;21.048;2022-08-19T06:49:53;24.20;99.90
18305;DHT22;9278;52.156;21.048;2022-08-19T06:52:30;24.30;99.90
18305;DHT22;9278;52.156;21.048;2022-08-19T06:55:05;24.40;99.90
18305;DHT22;9278;52.156;21.048;2022-08-19T06:57:33;24.50;99.90
18305;DHT22;9278;52.156;21.048;2022-08-19T07:00:03;24.60;99.90
18305;DHT22;9278;52.156;21.048;2022-08-19T07:02:36;24.90;99.90
18305;DHT22;9278;52.156;21.048;2022-08-19T07:05:07;25.30;99.90
18305;DHT22;9278;52.156;21.048;2022-08-19T07:07:38;25.50;99.90
18305;DHT22;9278;52.156;21.048;2022-08-19T07:10:09;25.60;99.90
18305;DHT22;9278;52.156;21.048;2022-08-19T07:12:37;25.70;99.90
18305;DHT22;9278;52.156;21.048;2022-08-19T07:15:08;25.90;99.90
18305;DHT22;9278;52.156;21.048;2022-08-19T07:17:38;26.00;99.90
18305;DHT22;9278;52.156;21.048;2022-08-19T07:20:08;26.00;99.90
18305;DHT22;9278;52.156;21.048;2022-08-19T07:22:39;26.20;99.90
18305;DHT22;9278;52.156;21.048;2022-08-19T07:25:09;26.30;99.90
18305;DHT22;9278;52.156;21.048;2022-08-19T07:27:40;26.30;99.90
18305;DHT22;9278;52.156;21.048;2022-08-19T07:30:12;26.20;99.90
18305;DHT22;9278;52.156;21.048;2022-08-19T07:32:40;26.30;99.90
18305;DHT22;9278;52.156;21.048;2022-08-19T07:35:09;26.30;99.90
18305;DHT22;9278;52.156;21.048;2022-08-19T07:37:39;26.30;99.90
18305;DHT22;9278;52.156;21.048;2022-08-19T07:40:11;26.40;99.90
18305;DHT22;9278;52.156;21.048;2022-08-19T07:42:39;26.60;99.90
18305;DHT22;9278;52.156;21.048;2022-08-19T07:45:08;26.60;99.90
18305;DHT22;9278;52.156;21.048;2022-08-19T07:47:36;26.80;99.90
18305;DHT22;9278;52.156;21.048;2022-08-19T07:50:17;26.90;99.90
18305;DHT22;9278;52.156;21.048;2022-08-19T07:52:48;27.00;99.90
18305;DHT22;9278;52.156;21.048;2022-08-19T07:55:20;27.10;99.90
18305;DHT22;9278;52.156;21.048;2022-08-19T07:58:09;27.20;99.90
18305;DHT22;9278;52.156;21.048;2022-08-19T08:00:37;27.30;99.90
18305;DHT22;9278;52.156;21.048;2022-08-19T08:03:05;27.30;99.90
18305;DHT22;9278;52.156;21.048;2022-08-19T08:05:35;27.40;99.90
18305;DHT22;9278;52.156;21.048;2022-08-19T08:08:22;27.50;99.90
18305;DHT22;9278;52.156;21.048;2022-08-19T08:11:16;27.40;99.90
18305;DHT22;9278;52.156;21.048;2022-08-19T08:13:47;27.60;99.90
18305;DHT22;9278;52.156;21.048;2022-08-19T08:16:32;27.60;99.90
18305;DHT22;9278;52.156;21.048;2022-08-19T08:19:06;27.60;99.90
18305;DHT22;9278;52.156;21.048;2022-08-19T08:21:52;27.60;99.90
18305;DHT22;9278;52.156;21.048;2022-08-19T08:24:22;27.60;99.90
18305;DHT22;9278;52.156;21.048;2022-08-19T08:26:55;27.70;99.90
18305;DHT22;9278;52.156;21.048;2022-08-19T08:29:23;27.70;99.90
18305;DHT22;9278;52.156;21.048;2022-08-19T08:32:01;27.80;99.90
18305;DHT22;9278;52.156;21.048;2022-08-19T08:34:40;27.80;99.90
18305;DHT22;9278;52.156;21.048;2022-08-19T08:37:09;27.80;99.90
18305;DHT22;9278;52.156;21.048;2022-08-19T08:39:38;27.90;99.90
18305;DHT22;9278;52.156;21.048;2022-08-19T08:42:11;27.90;99.90
18305;DHT22;9278;52.156;21.048;2022-08-19T08:44:55;27.90;99.90
18305;DHT22;9278;52.156;21.048;2022-08-19T08:47:30;28.00;99.90
18305;DHT22;9278;52.156;21.048;2022-08-19T08:50:05;28.00;99.90
18305;DHT22;9278;52.156;21.048;2022-08-19T08:52:37;28.10;99.90
18305;DHT22;9278;52.156;21.048;2022-08-19T08:55:13;28.20;99.90
18305;DHT22;9278;52.156;21.048;2022-08-19T08:57:51;28.30;99.90
18305;DHT22;9278;52.156;21.048;2022-08-19T09:00:24;28.40;99.90
18305;DHT22;9278;52.156;21.048;2022-08-19T09:02:53;28.60;99.90
18305;DHT22;9278;52.156;21.048;2022-08-19T09:05:23;28.60;99.90
18305;DHT22;9278;52.156;21.048;2022-08-19T09:08:13;28.60;99.90
18305;DHT22;9278;52.156;21.048;2022-08-19T09:10:51;28.70;99.90
18305;DHT22;9278;52.156;21.048;2022-08-19T09:13:27;28.80;99.90
18305;DHT22;9278;52.156;21.048;2022-08-19T09:16:06;28.90;99.90
18305;DHT22;9278;52.156;21.048;2022-08-19T09:18:42;29.00;99.90
18305;DHT22;9278;52.156;21.048;2022-08-19T09:21:11;29.00;99.90
18305;DHT22;9278;52.156;21.048;2022-08-19T09:23:42;29.00;99.90
18305;DHT22;9278;52.156;21.048;2022-08-19T09:26:14;29.00;99.90
18305;DHT22;9278;52.156;21.048;2022-08-19T09:28:44;29.00;99.90
18305;DHT22;9278;52.156;21.048;2022-08-19T09:31:17;29.10;99.90
18305;DHT22;9278;52.156;21.048;2022-08-19T09:33:46;29.20;99.90
18305;DHT22;9278;52.156;21.048;2022-08-19T09:36:20;29.30;99.90
18305;DHT22;9278;52.156;21.048;2022-08-19T09:39:00;29.40;99.90
18305;DHT22;9278;52.156;21.048;2022-08-19T09:41:30;29.50;99.90
18305;DHT22;9278;52.156;21.048;2022-08-19T09:44:00;29.50;99.90
18305;DHT22;9278;52.156;21.048;2022-08-19T09:46:29;29.60;99.90
18305;DHT22;9278;52.156;21.048;2022-08-19T09:48:59;29.50;99.90
18305;DHT22;9278;52.156;21.048;2022-08-19T09:51:32;29.50;99.90
18305;DHT22;9278;52.156;21.048;2022-08-19T09:54:02;29.30;99.90
18305;DHT22;9278;52.156;21.048;2022-08-19T09:56:32;29.60;99.90
18305;DHT22;9278;52.156;21.048;2022-08-19T09:59:02;29.60;99.90
18305;DHT22;9278;52.156;21.048;2022-08-19T10:01:33;29.70;99.90
18305;DHT22;9278;52.156;21.048;2022-08-19T10:04:01;29.70;99.90
18305;DHT22;9278;52.156;21.048;2022-08-19T10:06:46;29.70;99.90
18305;DHT22;9278;52.156;21.048;2022-08-19T10:09:20;29.90;99.90
18305;DHT22;9278;52.156;21.048;2022-08-19T10:12:02;29.90;99.90
18305;DHT22;9278;52.156;21.048;2022-08-19T10:14:32;30.10;99.90
18305;DHT22;9278;52.156;21.048;2022-08-19T10:17:01;30.10;99.90
18305;DHT22;9278;52.156;21.048;2022-08-19T10:19:44;30.00;99.90
18305;DHT22;9278;52.156;21.048;2022-08-19T10:22:22;29.90;93.20
18305;DHT22;9278;52.156;21.048;2022-08-19T10:24:51;30.00;99.90
18305;DHT22;9278;52.156;21.048;2022-08-19T10:27:21;30.00;99.90
18305;DHT22;9278;52.156;21.048;2022-08-19T10:29:52;30.10;99.90
18305;DHT22;9278;52.156;21.048;2022-08-19T10:32:20;30.00;99.90
18305;DHT22;9278;52.156;21.048;2022-08-19T10:35:00;30.00;99.90
18305;DHT22;9278;52.156;21.048;2022-08-19T10:37:31;30.20;99.60
18305;DHT22;9278;52.156;21.048;2022-08-19T10:40:01;30.20;98.70
18305;DHT22;9278;52.156;21.048;2022-08-19T10:42:31;30.30;97.90
18305;DHT22;9278;52.156;21.048;2022-08-19T10:44:59;30.30;97.50
18305;DHT22;9278;52.156;21.048;2022-08-19T10:47:30;30.30;97.80
18305;DHT22;9278;52.156;21.048;2022-08-19T10:49:59;30.20;98.10
18305;DHT22;9278;52.156;21.048;2022-08-19T10:52:49;30.50;96.70
18305;DHT22;9278;52.156;21.048;2022-08-19T10:55:20;30.80;94.90
18305;DHT22;9278;52.156;21.048;2022-08-19T10:58:11;30.80;94.60
18305;DHT22;9278;52.156;21.048;2022-08-19T11:00:41;30.70;93.90
18305;DHT22;9278;52.156;21.048;2022-08-19T11:03:10;30.80;94.20
18305;DHT22;9278;52.156;21.048;2022-08-19T11:05:38;30.70;94.00
18305;DHT22;9278;52.156;21.048;2022-08-19T11:08:08;30.80;93.90
18305;DHT22;9278;52.156;21.048;2022-08-19T11:10:50;30.90;93.40
18305;DHT22;9278;52.156;21.048;2022-08-19T11:13:19;30.80;93.50
18305;DHT22;9278;52.156;21.048;2022-08-19T11:15:47;30.90;93.50
18305;DHT22;9278;52.156;21.048;2022-08-19T11:18:23;31.10;92.20
18305;DHT22;9278;52.156;21.048;2022-08-19T11:20:51;31.10;91.70
18305;DHT22;9278;52.156;21.048;2022-08-19T11:23:19;31.10;91.50
18305;DHT22;9278;52.156;21.048;2022-08-19T11:25:49;31.30;90.90
18305;DHT22;9278;52.156;21.048;2022-08-19T11:28:18;31.10;89.10
18305;DHT22;9278;52.156;21.048;2022-08-19T11:30:47;31.00;90.10
18305;DHT22;9278;52.156;21.048;2022-08-19T11:33:15;31.00;89.80
18305;DHT22;9278;52.156;21.048;2022-08-19T11:35:43;31.00;88.40
18305;DHT22;9278;52.156;21.048;2022-08-19T11:38:11;31.10;87.70
18305;DHT22;9278;52.156;21.048;2022-08-19T11:40:41;31.20;84.20
18305;DHT22;9278;52.156;21.048;2022-08-19T11:43:10;31.10;84.50
18305;DHT22;9278;52.156;21.048;2022-08-19T11:45:39;31.10;85.20
18305;DHT22;9278;52.156;21.048;2022-08-19T11:48:08;31.30;82.80
18305;DHT22;9278;52.156;21.048;2022-08-19T11:50:37;31.30;84.00
18305;DHT22;9278;52.156;21.048;2022-08-19T11:53:08;31.10;82.90
18305;DHT22;9278;52.156;21.048;2022-08-19T11:55:37;31.30;83.70
18305;DHT22;9278;52.156;21.048;2022-08-19T11:58:10;31.30;80.60
18305;DHT22;9278;52.156;21.048;2022-08-19T12:00:46;31.40;81.30
18305;DHT22;9278;52.156;21.048;2022-08-19T12:03:14;31.30;79.30
18305;DHT22;9278;52.156;21.048;2022-08-19T12:05:42;31.40;79.70
18305;DHT22;9278;52.156;21.048;2022-08-19T12:08:10;31.50;78.10
18305;DHT22;9278;52.156;21.048;2022-08-19T12:10:40;31.40;78.20
18305;DHT22;9278;52.156;21.048;2022-08-19T12:13:09;31.40;77.40
18305;DHT22;9278;52.156;21.048;2022-08-19T12:15:38;31.40;76.70
18305;DHT22;9278;52.156;21.048;2022-08-19T12:18:09;31.40;76.10
18305;DHT22;9278;52.156;21.048;2022-08-19T12:20:39;31.30;76.20
18305;DHT22;9278;52.156;21.048;2022-08-19T12:23:08;31.60;74.90
18305;DHT22;9278;52.156;21.048;2022-08-19T12:25:37;31.60;73.90
18305;DHT22;9278;52.156;21.048;2022-08-19T12:28:05;31.60;74.70
18305;DHT22;9278;52.156;21.048;2022-08-19T12:30:33;31.50;72.90
18305;DHT22;9278;52.156;21.048;2022-08-19T12:33:01;31.30;72.90
18305;DHT22;9278;52.156;21.048;2022-08-19T12:35:30;31.50;72.70
18305;DHT22;9278;52.156;21.048;2022-08-19T12:37:58;31.40;72.20
18305;DHT22;9278;52.156;21.048;2022-08-19T12:40:29;31.20;74.00
18305;DHT22;9278;52.156;21.048;2022-08-19T12:42:57;31.50;70.50
18305;DHT22;9278;52.156;21.048;2022-08-19T12:45:25;31.50;69.80
18305;DHT22;9278;52.156;21.048;2022-08-19T12:47:54;31.50;68.50
18305;DHT22;9278;52.156;21.048;2022-08-19T12:50:22;31.60;70.40
18305;DHT22;9278;52.156;21.048;2022-08-19T12:52:51;31.70;69.40
18305;DHT22;9278;52.156;21.048;2022-08-19T12:55:19;31.70;68.10
18305;DHT22;9278;52.156;21.048;2022-08-19T12:57:48;31.80;66.80
18305;DHT22;9278;52.156;21.048;2022-08-19T13:00:19;31.80;65.30
18305;DHT22;9278;52.156;21.048;2022-08-19T13:02:50;31.80;64.80
18305;DHT22;9278;52.156;21.048;2022-08-19T13:05:20;31.70;63.80
18305;DHT22;9278;52.156;21.048;2022-08-19T13:07:52;31.70;63.10
18305;DHT22;9278;52.156;21.048;2022-08-19T13:10:25;31.80;62.20
18305;DHT22;9278;52.156;21.048;2022-08-19T13:12:54;31.80;61.30
18305;DHT22;9278;52.156;21.048;2022-08-19T13:15:23;31.90;59.90
18305;DHT22;9278;52.156;21.048;2022-08-19T13:17:53;31.70;60.00
18305;DHT22;9278;52.156;21.048;2022-08-19T13:20:23;31.50;60.60
18305;DHT22;9278;52.156;21.048;2022-08-19T13:22:53;31.80;61.20
18305;DHT22;9278;52.156;21.048;2022-08-19T13:25:22;31.70;60.80
18305;DHT22;9278;52.156;21.048;2022-08-19T13:27:51;31.80;58.50
18305;DHT22;9278;52.156;21.048;2022-08-19T13:30:20;31.90;60.40
18305;DHT22;9278;52.156;21.048;2022-08-19T13:33:07;31.90;56.90
18305;DHT22;9278;52.156;21.048;2022-08-19T13:35:45;31.90;57.60
18305;DHT22;9278;52.156;21.048;2022-08-19T13:38:16;32.00;55.60
18305;DHT22;9278;52.156;21.048;2022-08-19T13:40:46;31.90;57.50
18305;DHT22;9278;52.156;21.048;2022-08-19T13:43:14;31.80;58.00
18305;DHT22;9278;52.156;21.048;2022-08-19T13:45:50;31.70;56.00
18305;DHT22;9278;52.156;21.048;2022-08-19T13:48:19;31.80;54.30
18305;DHT22;9278;52.156;21.048;2022-08-19T13:50:48;31.70;54.00
18305;DHT22;9278;52.156;21.048;2022-08-19T13:53:17;31.90;53.50
18305;DHT22;9278;52.156;21.048;2022-08-19T13:55:46;31.90;53.80
18305;DHT22;9278;52.156;21.048;2022-08-19T13:58:14;31.90;51.60
18305;DHT22;9278;52.156;21.048;2022-08-19T14:00:45;31.70;51.80
18305;DHT22;9278;52.156;21.048;2022-08-19T14:03:13;31.80;50.30
18305;DHT22;9278;52.156;21.048;2022-08-19T14:05:41;32.00;49.20
18305;DHT22;9278;52.156;21.048;2022-08-19T14:08:09;32.10;48.60
18305;DHT22;9278;52.156;21.048;2022-08-19T14:10:42;31.70;49.80
18305;DHT22;9278;52.156;21.048;2022-08-19T14:13:15;31.80;48.20
18305;DHT22;9278;52.156;21.048;2022-08-19T14:15:44;31.80;48.50
18305;DHT22;9278;52.156;21.048;2022-08-19T14:18:13;31.80;47.70
18305;DHT22;9278;52.156;21.048;2022-08-19T14:20:41;31.60;49.20
18305;DHT22;9278;52.156;21.048;2022-08-19T14:23:10;31.80;48.80
18305;DHT22;9278;52.156;21.048;2022-08-19T14:25:39;31.80;46.30
18305;DHT22;9278;52.156;21.048;2022-08-19T14:28:08;32.00;45.60
18305;DHT22;9278;52.156;21.048;2022-08-19T14:30:37;31.80;54.30
18305;DHT22;9278;52.156;21.048;2022-08-19T14:33:06;31.80;44.80
18305;DHT22;9278;52.156;21.048;2022-08-19T14:35:36;31.90;43.60
18305;DHT22;9278;52.156;21.048;2022-08-19T14:38:06;31.80;44.10
18305;DHT22;9278;52.156;21.048;2022-08-19T14:40:40;31.50;44.20
18305;DHT22;9278;52.156;21.048;2022-08-19T14:43:10;31.70;43.30
18305;DHT22;9278;52.156;21.048;2022-08-19T14:45:39;31.90;43.20
18305;DHT22;9278;52.156;21.048;2022-08-19T14:48:09;31.80;43.30
18305;DHT22;9278;52.156;21.048;2022-08-19T14:50:45;31.80;41.40
18305;DHT22;9278;52.156;21.048;2022-08-19T14:53:13;31.50;41.40
18305;DHT22;9278;52.156;21.048;2022-08-19T14:55:44;31.40;44.10
18305;DHT22;9278;52.156;21.048;2022-08-19T14:58:14;31.50;68.00
18305;DHT22;9278;52.156;21.048;2022-08-19T15:00:54;31.50;41.30
18305;DHT22;9278;52.156;21.048;2022-08-19T15:03:22;31.80;41.10
18305;DHT22;9278;52.156;21.048;2022-08-19T15:05:50;31.60;40.30
18305;DHT22;9278;52.156;21.048;2022-08-19T15:08:18;31.60;41.40
18305;DHT22;9278;52.156;21.048;2022-08-19T15:10:47;31.60;39.10
18305;DHT22;9278;52.156;21.048;2022-08-19T15:13:17;31.60;37.70
18305;DHT22;9278;52.156;21.048;2022-08-19T15:15:45;31.40;38.70
18305;DHT22;9278;52.156;21.048;2022-08-19T15:18:14;31.60;40.50
18305;DHT22;9278;52.156;21.048;2022-08-19T15:20:42;31.50;40.10
18305;DHT22;9278;52.156;21.048;2022-08-19T15:23:12;31.30;41.20
18305;DHT22;9278;52.156;21.048;2022-08-19T15:25:41;31.40;39.80
18305;DHT22;9278;52.156;21.048;2022-08-19T15:28:10;31.40;40.00
18305;DHT22;9278;52.156;21.048;2022-08-19T15:30:40;31.40;40.30
18305;DHT22;9278;52.156;21.048;2022-08-19T15:33:11;31.30;63.90
18305;DHT22;9278;52.156;21.048;2022-08-19T15:35:41;31.40;39.10
18305;DHT22;9278;52.156;21.048;2022-08-19T15:38:10;31.30;39.00
18305;DHT22;9278;52.156;21.048;2022-08-19T15:40:40;31.30;40.20
18305;DHT22;9278;52.156;21.048;2022-08-19T15:43:09;31.30;40.10
18305;DHT22;9278;52.156;21.048;2022-08-19T15:45:37;31.20;41.40
18305;DHT22;9278;52.156;21.048;2022-08-19T15:48:07;31.10;40.90
18305;DHT22;9278;52.156;21.048;2022-08-19T15:50:35;31.20;41.30
18305;DHT22;9278;52.156;21.048;2022-08-19T15:53:07;31.00;40.90
18305;DHT22;9278;52.156;21.048;2022-08-19T15:55:41;31.00;40.70